Time;durP1;ratioP1;P1;durP2;ratioP2;P2;SDS_P1;SDS_P2;PMS_P1;PMS_P2;Temp;Humidity;BMP_temperature;BMP_pressure;BME280_temperature;BME280_humidity;BME280_pressure;Samples;Min_cycle;Max_cycle;Signal;HPM_P1;HPM_P2
2022/04/19 00:00:33;;;;;;;18.10;14.90;;;9.00;99.90;;;;;;5045272;28;20210;-79
2022/04/19 00:03:00;;;;;;;18.00;14.43;;;9.00;99.90;;;;;;5046401;28;20198;-78
2022/04/19 00:05:27;;;;;;;17.73;14.70;;;8.90;99.90;;;;;;5043853;28;20937;-77
2022/04/19 00:07:53;;;;;;;19.83;16.80;;;8.90;99.90;;;;;;5044683;28;20210;-78
2022/04/19 00:10:20;;;;;;;18.23;15.00;;;8.90;99.90;;;;;;5044270;28;20205;-78
2022/04/19 00:12:47;;;;;;;18.90;15.57;;;8.80;99.90;;;;;;5035678;28;20202;-77
2022/04/19 00:15:16;;;;;;;18.17;15.00;;;8.80;99.90;;;;;;5024730;28;20284;-77
2022/04/19 00:17:43;;;;;;;22.43;17.30;;;8.70;99.90;;;;;;5025239;28;20207;-78
2022/04/19 00:20:11;;;;;;;21.07;16.73;;;8.70;99.90;;;;;;5024872;28;20469;-79
2022/04/19 00:22:38;;;;;;;20.90;17.13;;;8.70;99.90;;;;;;5040263;28;20214;-78
2022/04/19 00:25:06;;;;;;;19.80;16.67;;;8.60;99.90;;;;;;5044155;28;20308;-78
2022/04/19 00:27:34;;;;;;;17.83;15.43;;;8.60;99.90;;;;;;5044248;28;20257;-77
2022/04/19 00:30:01;;;;;;;18.03;13.70;;;8.60;99.90;;;;;;5045101;28;20206;-77
2022/04/19 00:32:29;;;;;;;16.53;13.70;;;8.50;99.90;;;;;;5044452;28;20293;-79
2022/04/19 00:34:56;;;;;;;17.33;13.63;;;8.50;99.90;;;;;;5044698;28;20232;-78
2022/04/19 00:37:23;;;;;;;15.90;13.10;;;8.50;99.90;;;;;;5044444;28;20198;-79
2022/04/19 00:39:50;;;;;;;17.93;15.13;;;8.50;99.90;;;;;;5043778;28;20660;-79
2022/04/19 00:42:17;;;;;;;18.77;15.00;;;8.50;99.90;;;;;;5044645;28;20213;-78
2022/04/19 00:44:44;;;;;;;18.83;14.43;;;8.50;99.90;;;;;;5043807;28;20312;-79
2022/04/19 00:47:12;;;;;;;16.00;14.03;;;8.50;99.90;;;;;;5042922;28;20232;-78
2022/04/19 00:49:42;;;;;;;15.70;13.50;;;8.50;99.90;;;;;;5043868;28;20205;-78
2022/04/19 00:52:09;;;;;;;16.57;14.27;;;8.50;99.90;;;;;;5044537;28;20207;-79
2022/04/19 00:54:36;;;;;;;17.23;14.43;;;8.50;99.90;;;;;;5043504;28;20198;-78
2022/04/19 00:57:04;;;;;;;16.37;13.47;;;8.50;99.90;;;;;;5043990;28;20234;-78
2022/04/19 00:59:32;;;;;;;16.77;13.90;;;8.50;99.90;;;;;;5043570;28;20202;-77
2022/04/19 01:01:59;;;;;;;16.33;13.97;;;8.50;99.90;;;;;;5037552;28;20210;-78
2022/04/19 01:04:26;;;;;;;18.53;15.10;;;8.50;99.90;;;;;;5028270;28;20208;-78
2022/04/19 01:06:54;;;;;;;18.90;14.57;;;8.40;99.90;;;;;;5030127;28;20217;-79
2022/04/19 01:09:22;;;;;;;17.00;14.17;;;8.50;99.90;;;;;;5039364;28;20441;-77
2022/04/19 01:14:36;;;;;;;20.50;15.43;;;8.40;99.90;;;;;;5047485;28;20960;-79
2022/04/19 01:17:03;;;;;;;20.63;16.60;;;8.40;99.90;;;;;;5039673;28;20372;-77
2022/04/19 01:19:31;;;;;;;17.10;14.73;;;8.40;99.90;;;;;;5027810;28;20220;-77
2022/04/19 01:22:00;;;;;;;19.07;15.20;;;8.40;99.90;;;;;;5050011;28;20301;-79
2022/04/19 01:24:27;;;;;;;20.93;17.50;;;8.40;99.90;;;;;;5044788;28;20301;-78
2022/04/19 01:26:55;;;;;;;19.97;17.10;;;8.30;99.90;;;;;;5040478;28;20225;-79
2022/04/19 01:29:22;;;;;;;20.37;18.10;;;8.30;99.90;;;;;;5053557;28;20205;-79
2022/04/19 01:31:51;;;;;;;20.93;17.57;;;8.30;99.90;;;;;;5048831;28;20224;-79
2022/04/19 01:34:19;;;;;;;20.00;16.40;;;8.30;99.90;;;;;;5052662;28;21006;-79
2022/04/19 01:36:46;;;;;;;21.20;16.97;;;8.30;99.90;;;;;;5044476;28;20628;-77
2022/04/19 01:39:14;;;;;;;22.07;17.97;;;8.30;99.90;;;;;;5047642;28;20229;-79
2022/04/19 01:41:41;;;;;;;21.83;17.97;;;8.20;99.90;;;;;;5036348;28;20947;-78
2022/04/19 01:44:08;;;;;;;23.13;18.07;;;8.20;99.90;;;;;;5029591;28;20207;-76
2022/04/19 01:46:35;;;;;;;19.53;15.87;;;8.20;99.90;;;;;;5027821;28;20218;-79
2022/04/19 01:49:03;;;;;;;22.23;18.10;;;8.20;99.90;;;;;;5064508;22;20244;-77
2022/04/19 01:51:29;;;;;;;21.90;17.23;;;8.20;99.90;;;;;;5066317;28;20220;-78
2022/04/19 01:53:56;;;;;;;19.83;16.70;;;8.10;99.90;;;;;;5067813;28;20248;-77
2022/04/19 01:56:24;;;;;;;20.10;17.63;;;8.10;99.90;;;;;;5067296;28;20201;-79
2022/04/19 01:58:51;;;;;;;21.07;18.70;;;8.10;99.90;;;;;;5067300;28;20201;-78
2022/04/19 02:01:18;;;;;;;26.27;20.07;;;8.10;99.90;;;;;;5065591;28;20213;-79
2022/04/19 02:03:45;;;;;;;25.03;20.10;;;8.10;99.90;;;;;;5050691;28;20205;-79
2022/04/19 02:06:13;;;;;;;26.73;21.23;;;8.00;99.90;;;;;;5045957;28;20230;-77
2022/04/19 02:08:41;;;;;;;25.80;21.00;;;8.00;99.90;;;;;;5047156;28;20256;-77
2022/04/19 02:11:07;;;;;;;28.23;22.60;;;8.00;99.90;;;;;;5056834;28;20201;-77
2022/04/19 02:13:36;;;;;;;22.57;19.50;;;8.00;99.90;;;;;;5050388;28;20208;-78
2022/04/19 02:16:02;;;;;;;24.37;19.07;;;8.00;99.90;;;;;;5046991;28;20221;-77
2022/04/19 02:18:29;;;;;;;25.77;20.23;;;8.00;99.90;;;;;;5045047;28;20338;-78
2022/04/19 02:21:00;;;;;;;26.97;22.37;;;8.00;99.90;;;;;;5045680;28;20217;-77
2022/04/19 02:23:27;;;;;;;27.57;22.83;;;8.00;99.90;;;;;;5064898;28;20209;-76
2022/04/19 02:25:55;;;;;;;27.40;22.47;;;8.00;99.90;;;;;;5066184;28;20243;-78
2022/04/19 02:28:22;;;;;;;27.27;21.73;;;8.00;99.90;;;;;;5065723;28;20189;-76
2022/04/19 02:30:51;;;;;;;25.93;21.57;;;8.00;99.90;;;;;;5061616;28;20214;-76
2022/04/19 02:33:18;;;;;;;24.40;20.43;;;7.90;99.90;;;;;;5045075;28;20946;-77
2022/04/19 02:35:45;;;;;;;27.47;22.40;;;7.90;99.90;;;;;;5061101;28;20225;-77
2022/04/19 02:38:13;;;;;;;24.93;20.57;;;7.90;99.90;;;;;;5065672;28;20197;-77
2022/04/19 02:40:40;;;;;;;25.37;20.50;;;7.90;99.90;;;;;;5064813;28;20214;-77
2022/04/19 02:43:07;;;;;;;23.00;19.17;;;7.90;99.90;;;;;;5065232;28;20209;-78
2022/04/19 02:45:34;;;;;;;22.73;18.80;;;7.80;99.90;;;;;;5066029;28;20200;-77
2022/04/19 02:48:07;;;;;;;21.23;18.33;;;7.80;99.90;;;;;;5065199;28;20245;-77
2022/04/19 02:50:35;;;;;;;21.40;17.63;;;7.80;99.90;;;;;;5065911;28;20239;-80
2022/04/19 02:53:02;;;;;;;23.40;18.50;;;7.80;99.90;;;;;;5065315;28;20264;-78
2022/04/19 02:55:30;;;;;;;21.57;18.63;;;7.80;99.90;;;;;;5064722;28;20488;-78
2022/04/19 02:57:57;;;;;;;25.50;21.13;;;7.70;99.90;;;;;;5065751;28;20292;-77
2022/04/19 03:00:24;;;;;;;22.43;18.90;;;7.70;99.90;;;;;;5064698;28;20205;-78
2022/04/19 03:02:51;;;;;;;23.17;20.70;;;7.60;99.90;;;;;;5066199;28;20205;-77
2022/04/19 03:05:20;;;;;;;26.57;22.60;;;7.60;99.90;;;;;;5065194;28;20205;-79
2022/04/19 03:07:47;;;;;;;24.40;20.67;;;7.60;99.90;;;;;;5063770;28;20330;-78
2022/04/19 03:10:15;;;;;;;27.70;22.00;;;7.60;99.90;;;;;;5065664;28;20568;-78
2022/04/19 03:12:43;;;;;;;25.63;21.90;;;7.60;99.90;;;;;;5065579;28;20204;-78
2022/04/19 03:15:11;;;;;;;26.37;21.53;;;7.50;99.90;;;;;;5064666;28;20220;-78
2022/04/19 03:17:38;;;;;;;31.50;24.37;;;7.50;99.90;;;;;;5065116;28;20197;-77
2022/04/19 03:20:08;;;;;;;31.57;24.40;;;7.50;99.90;;;;;;5065445;28;20291;-77
2022/04/19 03:28:05;;;;;;;26.43;22.77;;;7.50;99.90;;;;;;5044194;28;20249;-78
2022/04/19 03:30:32;;;;;;;28.87;23.10;;;7.40;99.90;;;;;;5044340;28;20220;-78
2022/04/19 03:32:59;;;;;;;27.03;22.53;;;7.40;99.90;;;;;;5051440;28;20205;-80
2022/04/19 03:35:26;;;;;;;28.47;23.33;;;7.40;99.90;;;;;;5064250;28;20225;-77
2022/04/19 03:37:54;;;;;;;26.30;22.13;;;7.40;99.90;;;;;;5064679;28;20208;-77
2022/04/19 03:40:21;;;;;;;26.83;22.50;;;7.40;99.90;;;;;;5064587;28;20216;-77
2022/04/19 03:42:48;;;;;;;27.20;22.03;;;7.40;99.90;;;;;;5063217;28;20205;-79
2022/04/19 03:45:14;;;;;;;24.30;19.63;;;7.40;99.90;;;;;;5049952;28;20209;-79
2022/04/19 03:47:41;;;;;;;26.97;21.33;;;7.30;99.90;;;;;;5047795;28;20245;-79
2022/04/19 03:50:09;;;;;;;25.60;21.67;;;7.30;99.90;;;;;;5064539;28;20190;-78
2022/04/19 03:52:36;;;;;;;24.57;20.73;;;7.30;99.90;;;;;;5065592;28;20648;-77
2022/04/19 03:55:06;;;;;;;26.00;20.97;;;7.30;99.90;;;;;;5065967;28;20222;-79
2022/04/19 03:57:32;;;;;;;25.23;20.33;;;7.30;99.90;;;;;;5063729;28;20292;-78
2022/04/19 03:59:59;;;;;;;22.00;19.10;;;7.20;99.90;;;;;;5065484;28;20205;-79
2022/04/19 04:02:26;;;;;;;23.23;19.80;;;7.20;99.90;;;;;;5062825;28;20212;-78
2022/04/19 04:04:53;;;;;;;23.80;20.47;;;7.20;99.90;;;;;;5064818;28;20201;-78
2022/04/19 04:07:20;;;;;;;23.37;19.47;;;7.20;99.90;;;;;;5064726;28;20233;-78
2022/04/19 04:09:49;;;;;;;21.87;19.10;;;7.10;99.90;;;;;;5064149;28;20595;-77
2022/04/19 04:12:17;;;;;;;24.23;19.37;;;7.10;99.90;;;;;;5062997;28;20295;-77
2022/04/19 04:14:44;;;;;;;23.27;19.77;;;7.10;99.90;;;;;;5064812;28;20279;-80
2022/04/19 04:17:11;;;;;;;21.80;18.47;;;7.10;99.90;;;;;;5063535;28;20598;-76
2022/04/19 04:19:38;;;;;;;26.33;21.23;;;7.10;99.90;;;;;;5063119;28;20216;-77
2022/04/19 04:22:05;;;;;;;23.90;20.13;;;7.00;99.90;;;;;;5064468;28;20189;-77
2022/04/19 04:24:32;;;;;;;23.87;20.57;;;7.00;99.90;;;;;;5063666;28;20205;-77
2022/04/19 04:26:59;;;;;;;24.43;19.37;;;7.00;99.90;;;;;;5064220;28;20801;-77
2022/04/19 04:29:27;;;;;;;22.30;19.10;;;7.00;99.90;;;;;;5062955;28;20209;-79
2022/04/19 04:31:54;;;;;;;22.10;19.00;;;6.90;99.90;;;;;;5064287;28;20585;-77
2022/04/19 04:34:21;;;;;;;21.97;18.23;;;6.90;99.90;;;;;;5062964;28;20221;-77
2022/04/19 04:36:48;;;;;;;21.17;18.47;;;6.90;99.90;;;;;;5043649;28;20205;-77
2022/04/19 04:39:15;;;;;;;20.87;17.40;;;6.90;99.90;;;;;;5054157;28;20209;-76
2022/04/19 04:41:42;;;;;;;20.70;17.73;;;6.90;99.90;;;;;;5064219;28;20233;-77
2022/04/19 04:44:09;;;;;;;21.43;17.50;;;6.90;99.90;;;;;;5067793;28;20201;-77
2022/04/19 04:49:40;;;;;;;22.37;18.73;;;6.90;99.90;;;;;;5084836;28;20238;-77
2022/04/19 04:52:08;;;;;;;22.53;17.87;;;6.90;99.90;;;;;;5087813;28;20285;-77
2022/04/19 04:54:35;;;;;;;24.53;18.90;;;6.90;99.90;;;;;;5087881;28;20201;-77
2022/04/19 04:57:03;;;;;;;19.57;16.47;;;6.90;99.90;;;;;;5087468;28;20203;-77
2022/04/19 04:59:30;;;;;;;22.27;19.03;;;6.90;99.90;;;;;;5087402;28;20297;-77
2022/04/19 05:01:59;;;;;;;21.33;17.97;;;6.90;99.90;;;;;;5088217;28;20854;-79
2022/04/19 05:04:26;;;;;;;21.17;17.87;;;6.90;99.90;;;;;;5087750;28;20657;-77
2022/04/19 05:06:53;;;;;;;28.37;21.90;;;6.90;99.90;;;;;;5087310;28;20200;-79
2022/04/19 05:09:20;;;;;;;35.07;26.90;;;6.90;99.90;;;;;;5087132;28;20224;-79
2022/04/19 05:11:47;;;;;;;31.10;24.23;;;6.90;99.90;;;;;;5087813;28;20204;-79
2022/04/19 05:14:14;;;;;;;29.87;25.03;;;6.90;99.90;;;;;;5086525;28;20850;-79
2022/04/19 05:16:41;;;;;;;28.70;23.73;;;6.90;99.90;;;;;;5087952;28;20200;-77
2022/04/19 05:19:10;;;;;;;26.60;21.57;;;6.90;99.90;;;;;;5088280;28;20196;-78
2022/04/19 05:21:37;;;;;;;29.03;23.63;;;7.00;99.90;;;;;;5087912;28;20926;-78
2022/04/19 05:24:05;;;;;;;26.50;22.30;;;7.00;99.90;;;;;;5087751;28;20247;-78
2022/04/19 05:26:32;;;;;;;29.47;24.60;;;7.00;99.90;;;;;;5086777;28;20200;-79
2022/04/19 05:28:58;;;;;;;27.47;21.70;;;7.10;99.90;;;;;;5087451;28;20246;-78
2022/04/19 05:31:25;;;;;;;26.67;21.60;;;7.10;99.90;;;;;;5085628;28;20216;-78
2022/04/19 05:33:52;;;;;;;28.00;23.27;;;7.20;99.90;;;;;;5087235;28;20201;-77
2022/04/19 05:36:22;;;;;;;25.80;21.43;;;7.20;99.90;;;;;;5086839;28;20200;-78
2022/04/19 05:38:52;;;;;;;27.23;23.10;;;7.20;99.90;;;;;;5087370;28;20208;-77
2022/04/19 05:41:19;;;;;;;26.23;22.33;;;7.30;99.90;;;;;;5087283;28;20277;-79
2022/04/19 05:43:46;;;;;;;28.33;22.47;;;7.30;99.90;;;;;;5086654;28;20496;-78
2022/04/19 05:46:13;;;;;;;29.90;24.00;;;7.40;99.90;;;;;;5086457;28;20209;-77
2022/04/19 05:48:40;;;;;;;26.30;22.73;;;7.50;99.90;;;;;;5086452;28;20232;-79
2022/04/19 05:51:07;;;;;;;26.47;21.83;;;7.50;99.90;;;;;;5087188;28;20300;-78
2022/04/19 05:53:35;;;;;;;33.43;25.27;;;7.60;99.90;;;;;;5086163;28;20200;-80
2022/04/19 05:56:02;;;;;;;32.07;25.60;;;7.60;99.90;;;;;;5086539;28;20207;-78
2022/04/19 05:58:29;;;;;;;28.70;23.97;;;7.70;99.90;;;;;;5078048;28;20213;-80
2022/04/19 06:00:56;;;;;;;27.97;22.23;;;7.80;99.90;;;;;;5067220;28;20209;-77
2022/04/19 06:06:06;;;;;;;27.17;20.37;;;8.00;99.90;;;;;;5083926;28;20199;-79
2022/04/19 06:08:35;;;;;;;23.37;19.40;;;8.10;99.90;;;;;;5085830;28;20225;-80
2022/04/19 06:11:01;;;;;;;19.90;17.13;;;8.20;99.90;;;;;;5086726;28;20212;-79
2022/04/19 06:13:28;;;;;;;18.70;16.17;;;8.30;99.90;;;;;;5086450;28;20228;-79
2022/04/19 06:15:55;;;;;;;19.77;16.23;;;8.50;99.90;;;;;;5086047;28;20208;-79
2022/04/19 06:18:22;;;;;;;19.13;16.37;;;8.60;99.90;;;;;;5086115;28;20200;-79
2022/04/19 06:20:53;;;;;;;18.80;15.47;;;8.70;99.90;;;;;;5085490;28;20200;-79
2022/04/19 06:23:20;;;;;;;16.87;14.50;;;8.90;99.90;;;;;;5085401;28;20207;-79
2022/04/19 06:25:48;;;;;;;16.53;14.67;;;8.90;99.90;;;;;;5085631;28;20201;-79
2022/04/19 06:28:16;;;;;;;20.33;15.13;;;9.10;99.90;;;;;;5085082;28;20231;-78
2022/04/19 06:30:43;;;;;;;15.70;13.77;;;9.20;99.90;;;;;;5084928;28;20801;-79
2022/04/19 06:33:10;;;;;;;18.30;13.83;;;9.40;99.90;;;;;;5086046;28;20193;-79
2022/04/19 06:35:37;;;;;;;15.43;13.67;;;9.50;99.90;;;;;;5085018;28;20229;-80
2022/04/19 06:38:03;;;;;;;18.17;13.67;;;9.70;99.90;;;;;;5085456;28;20196;-79
2022/04/19 06:40:30;;;;;;;15.37;12.67;;;9.80;99.90;;;;;;5085338;28;20208;-80
2022/04/19 06:42:58;;;;;;;17.20;12.60;;;10.00;99.90;;;;;;5085628;28;20216;-80
2022/04/19 06:45:26;;;;;;;16.33;12.03;;;10.20;99.90;;;;;;5084743;28;20230;-79
2022/04/19 06:47:58;;;;;;;14.83;11.70;;;10.40;99.90;;;;;;5078624;28;20236;-79
2022/04/19 06:53:47;;;;;;;17.60;11.50;;;10.80;99.90;;;;;;4995464;28;20352;-79
2022/04/19 06:56:14;;;;;;;16.50;11.00;;;11.10;99.90;;;;;;5047718;28;20930;-79
2022/04/19 06:58:43;;;;;;;12.50;10.40;;;11.40;99.90;;;;;;5064821;28;20296;-81
2022/04/19 07:01:10;;;;;;;12.40;9.80;;;11.70;99.90;;;;;;5063678;28;20213;-80
2022/04/19 07:03:38;;;;;;;13.43;9.93;;;12.00;99.90;;;;;;5064091;28;20244;-79
2022/04/19 07:06:06;;;;;;;13.70;9.53;;;12.30;99.90;;;;;;5082493;28;20216;-79
2022/04/19 07:08:34;;;;;;;12.23;9.93;;;12.60;99.90;;;;;;5079534;28;20682;-79
2022/04/19 07:11:01;;;;;;;12.67;9.77;;;12.90;99.90;;;;;;5084211;28;20219;-81
2022/04/19 07:13:28;;;;;;;11.73;9.50;;;13.20;99.90;;;;;;5083960;28;20212;-79
2022/04/19 07:15:56;;;;;;;13.47;9.17;;;13.50;99.90;;;;;;5084168;28;20227;-79
2022/04/19 07:18:23;;;;;;;11.63;8.63;;;13.70;99.90;;;;;;5084666;28;20243;-81
2022/04/19 07:29:03;;;;;;;11.57;8.47;;;15.10;99.90;;;;;;5084834;28;20223;-82
2022/04/19 07:31:33;;;;;;;12.07;8.43;;;15.40;99.90;;;;;;5083887;28;20301;-80
2022/04/19 07:33:59;;;;;;;9.00;7.63;;;15.60;99.90;;;;;;5085014;28;20312;-81
2022/04/19 07:36:26;;;;;;;9.73;8.60;;;15.80;99.90;;;;;;5084430;28;20212;-82
2022/04/19 07:38:53;;;;;;;10.73;7.53;;;15.90;99.90;;;;;;5085364;28;20208;-82
2022/04/19 07:41:20;;;;;;;10.33;8.37;;;16.10;99.90;;;;;;5082990;28;20196;-82
2022/04/19 07:43:47;;;;;;;10.93;7.45;;;16.30;99.90;;;;;;5084589;28;20302;-81
2022/04/19 07:46:15;;;;;;;10.05;8.70;;;16.30;99.90;;;;;;5084646;28;20287;-80
2022/04/19 07:48:44;;;;;;;9.23;7.88;;;16.40;99.90;;;;;;5083170;28;20264;-81
2022/04/19 07:51:10;;;;;;;8.30;7.30;;;16.50;99.90;;;;;;5085536;28;20215;-82
2022/04/19 07:53:37;;;;;;;9.43;7.45;;;16.50;99.90;;;;;;5084661;28;20205;-81
2022/04/19 07:56:04;;;;;;;10.98;8.13;;;16.60;99.90;;;;;;5083956;28;20212;-80
2022/04/19 07:58:31;;;;;;;10.13;7.28;;;16.70;99.90;;;;;;5084647;28;20219;-81
2022/04/19 08:00:58;;;;;;;9.30;7.38;;;16.90;99.90;;;;;;5083707;28;20204;-81
2022/04/19 08:03:25;;;;;;;10.93;7.25;;;17.00;99.90;;;;;;5082840;28;20914;-81
2022/04/19 08:05:54;;;;;;;7.38;6.30;;;17.10;99.90;;;;;;5084875;28;20212;-81
2022/04/19 08:08:22;;;;;;;9.45;6.95;;;17.30;99.90;;;;;;5083579;28;20224;-82
2022/04/19 08:10:49;;;;;;;7.85;6.70;;;17.50;99.90;;;;;;5084221;28;20208;-81
2022/04/19 08:13:16;;;;;;;8.68;6.95;;;17.70;99.90;;;;;;5084364;28;20213;-79
2022/04/19 08:15:43;;;;;;;8.98;6.68;;;17.90;99.90;;;;;;5083272;28;20273;-79
2022/04/19 08:18:13;;;;;;;7.63;6.20;;;18.10;99.90;;;;;;5083778;28;20216;-81
2022/04/19 08:20:40;;;;;;;8.05;6.00;;;18.30;99.90;;;;;;5083847;28;20295;-81
2022/04/19 08:23:09;;;;;;;9.63;6.63;;;18.50;99.90;;;;;;5084387;28;20791;-81
2022/04/19 08:25:36;;;;;;;7.13;5.68;;;18.60;99.90;;;;;;5078815;28;20216;-83
2022/04/19 08:28:03;;;;;;;8.57;6.00;;;18.80;99.90;;;;;;5084283;28;20239;-80
2022/04/19 08:30:30;;;;;;;10.05;6.88;;;18.90;99.90;;;;;;5077366;28;20223;-81
2022/04/19 08:32:58;;;;;;;8.95;6.50;;;19.10;99.90;;;;;;5085017;28;20212;-84
2022/04/19 08:35:25;;;;;;;8.75;6.50;;;19.20;99.90;;;;;;5083159;28;20239;-81
2022/04/19 08:37:52;;;;;;;6.63;5.65;;;19.40;99.90;;;;;;5083867;28;20222;-81
2022/04/19 08:40:21;;;;;;;9.73;7.15;;;19.70;99.90;;;;;;5084285;28;20208;-80
2022/04/19 08:42:48;;;;;;;10.32;6.13;;;19.90;99.90;;;;;;5084685;28;20215;-81
2022/04/19 08:45:16;;;;;;;9.00;6.22;;;20.00;99.90;;;;;;5083690;28;20212;-82
2022/04/19 08:47:45;;;;;;;7.97;5.93;;;20.10;99.90;;;;;;5081541;28;20240;-83
2022/04/19 08:50:14;;;;;;;9.30;6.60;;;20.30;99.90;;;;;;5082565;28;20632;-82
2022/04/19 08:52:41;;;;;;;7.75;6.20;;;20.40;99.90;;;;;;5084931;28;20203;-78
2022/04/19 08:57:56;;;;;;;8.23;5.85;;;20.40;99.90;;;;;;5086488;28;20188;-83
2022/04/19 09:00:24;;;;;;;8.93;6.75;;;20.70;99.90;;;;;;5085973;28;20197;-81
2022/04/19 09:02:52;;;;;;;10.30;6.43;;;20.60;99.90;;;;;;5085049;28;20300;-82
2022/04/19 09:05:21;;;;;;;10.60;7.00;;;20.60;99.90;;;;;;5086492;28;20201;-82
2022/04/19 09:07:49;;;;;;;9.85;6.63;;;20.40;99.90;;;;;;5085604;28;20327;-80
2022/04/19 09:10:25;;;;;;;8.15;6.32;;;20.60;99.90;;;;;;5086544;28;20224;-82
2022/04/19 09:13:01;;;;;;;10.60;6.28;;;20.30;99.90;;;;;;5085223;28;20208;-81
2022/04/19 09:15:37;;;;;;;6.93;5.85;;;20.20;99.90;;;;;;5086550;28;20196;-82
2022/04/19 09:18:05;;;;;;;8.13;6.32;;;20.50;99.90;;;;;;5085814;28;20290;-82
2022/04/19 09:20:32;;;;;;;7.25;5.97;;;20.80;99.90;;;;;;5084370;28;20211;-82
2022/04/19 09:23:07;;;;;;;8.63;6.32;;;21.00;99.90;;;;;;5085601;28;20266;-77
2022/04/19 09:25:36;;;;;;;7.60;6.75;;;21.40;99.90;;;;;;5085637;28;20940;-81
2022/04/19 09:28:19;;;;;;;8.63;6.30;;;21.50;99.90;;;;;;5083324;28;20634;-82
2022/04/19 09:30:48;;;;;;;9.48;6.78;;;21.70;99.90;;;;;;5087750;28;20469;-81
2022/04/19 09:33:16;;;;;;;6.82;6.03;;;21.60;99.90;;;;;;5088397;28;20843;-78
2022/04/19 09:35:45;;;;;;;7.80;6.50;;;21.60;99.90;;;;;;5069251;28;20229;-82
2022/04/19 09:38:13;;;;;;;8.38;6.93;;;21.70;99.90;;;;;;5072282;28;20303;-78
2022/04/19 09:40:41;;;;;;;8.40;6.85;;;21.90;99.90;;;;;;5090068;28;21006;-81
2022/04/19 09:43:12;;;;;;;10.05;7.38;;;21.90;99.90;;;;;;5089980;28;20219;-80
2022/04/19 09:46:02;;;;;;;9.18;6.95;;;21.80;99.90;;;;;;5090015;28;20203;-81
2022/04/19 09:48:31;;;;;;;7.03;6.30;;;21.80;99.90;;;;;;5083482;28;20229;-80
2022/04/19 09:51:02;;;;;;;8.15;6.05;;;21.70;99.90;;;;;;5088014;28;20775;-81
2022/04/19 09:53:31;;;;;;;8.13;6.43;;;21.80;99.90;;;;;;5059724;28;20325;-81
2022/04/19 09:55:59;;;;;;;9.25;6.88;;;21.80;99.90;;;;;;5077120;28;20212;-81
2022/04/19 09:58:29;;;;;;;10.38;7.22;;;22.00;99.90;;;;;;5084615;28;20667;-82
2022/04/19 10:00:57;;;;;;;9.73;6.80;;;21.50;99.90;;;;;;5079670;28;20775;-82
2022/04/19 10:08:54;;;;;;;10.38;7.90;;;21.30;99.90;;;;;;5080584;28;20263;-80
2022/04/19 10:11:21;;;;;;;8.02;5.97;;;21.60;99.90;;;;;;5079761;28;20633;-80
2022/04/19 10:13:51;;;;;;;10.05;6.93;;;21.70;99.90;;;;;;5074340;28;20209;-80
2022/04/19 10:16:18;;;;;;;9.38;6.80;;;21.90;99.90;;;;;;5074724;28;20216;-81
2022/04/19 10:18:46;;;;;;;8.45;6.85;;;22.10;99.90;;;;;;5076424;28;20299;-81
2022/04/19 10:21:18;;;;;;;12.75;7.95;;;22.30;99.90;;;;;;5077144;28;20248;-80
2022/04/19 10:23:45;;;;;;;9.52;6.68;;;22.40;99.90;;;;;;5080673;28;20216;-79
2022/04/19 10:26:18;;;;;;;9.77;8.02;;;22.60;99.90;;;;;;5081150;28;20227;-79
2022/04/19 10:28:46;;;;;;;10.52;6.80;;;22.80;99.90;;;;;;5075216;28;20248;-79
2022/04/19 10:31:23;;;;;;;9.07;7.13;;;22.80;99.90;;;;;;5080069;28;20928;-80
2022/04/19 10:33:52;;;;;;;9.23;7.00;;;22.70;99.90;;;;;;5081377;28;20212;-80
2022/04/19 10:36:24;;;;;;;9.15;7.40;;;22.60;99.90;;;;;;5081634;28;20675;-79
2022/04/19 10:39:19;;;;;;;10.30;7.82;;;22.40;99.90;;;;;;5083552;28;20208;-80
2022/04/19 10:41:53;;;;;;;11.27;7.80;;;22.20;99.90;;;;;;5087170;28;20204;-80
2022/04/19 10:44:28;;;;;;;9.05;7.43;;;21.60;99.90;;;;;;5085983;28;20307;-80
2022/04/19 10:47:15;;;;;;;9.82;7.65;;;21.60;99.90;;;;;;5086816;28;20223;-80
2022/04/19 10:49:58;;;;;;;11.38;8.43;;;21.40;99.90;;;;;;5086369;28;20506;-81
2022/04/19 10:52:50;;;;;;;10.35;7.95;;;20.70;99.90;;;;;;5085447;28;20219;-80
2022/04/19 10:55:23;;;;;;;13.43;8.35;;;20.90;99.90;;;;;;5086181;28;20285;-80
2022/04/19 11:00:45;;;;;;;10.10;7.07;;;20.70;99.90;;;;;;5085123;28;20686;-80
2022/04/19 11:03:15;;;;;;;11.60;8.52;;;20.80;99.90;;;;;;5086461;28;20232;-80
2022/04/19 11:05:43;;;;;;;12.07;8.50;;;20.90;99.90;;;;;;5085611;28;20488;-81
2022/04/19 11:08:31;;;;;;;10.25;7.75;;;21.10;99.90;;;;;;5084638;28;20213;-79
2022/04/19 11:11:23;;;;;;;10.63;8.27;;;21.00;99.90;;;;;;5085831;28;20196;-80
2022/04/19 11:14:22;;;;;;;9.05;7.40;;;20.90;99.90;;;;;;5075493;28;20209;-81
2022/04/19 11:16:56;;;;;;;10.93;8.32;;;20.80;99.90;;;;;;5065444;28;20293;-80
2022/04/19 11:19:25;;;;;;;8.65;7.15;;;20.50;99.90;;;;;;5064857;28;20193;-80
2022/04/19 11:21:56;;;;;;;11.75;8.45;;;20.40;99.90;;;;;;5065345;28;20669;-77
2022/04/19 11:25:04;;;;;;;10.30;7.90;;;20.50;99.90;;;;;;5083128;28;20339;-80
2022/04/19 11:28:11;;;;;;;12.57;8.85;;;20.60;99.90;;;;;;5084748;28;20202;-80
2022/04/19 11:30:44;;;;;;;11.85;8.55;;;20.60;99.90;;;;;;5084429;28;20235;-80
2022/04/19 11:33:11;;;;;;;14.15;9.40;;;20.50;99.90;;;;;;5084984;28;20201;-78
2022/04/19 11:35:39;;;;;;;9.70;7.78;;;20.50;99.90;;;;;;5085153;28;20230;-78
2022/04/19 11:38:09;;;;;;;9.50;7.05;;;20.50;99.90;;;;;;5084615;28;20596;-78
2022/04/19 11:49:05;;;;;;;11.05;7.35;;;20.90;99.90;;;;;;5082906;28;20238;-80
2022/04/19 11:51:37;;;;;;;10.07;7.75;;;21.00;99.90;;;;;;5083952;28;20849;-80
2022/04/19 11:54:04;;;;;;;12.02;7.97;;;20.80;99.90;;;;;;5084719;28;20208;-78
2022/04/19 11:56:31;;;;;;;12.02;7.93;;;20.60;99.90;;;;;;5083287;28;20223;-79
2022/04/19 11:59:00;;;;;;;10.45;7.75;;;20.80;99.90;;;;;;5084714;28;20208;-80
2022/04/19 12:01:28;;;;;;;13.13;9.20;;;20.80;99.90;;;;;;5083516;28;20284;-79
2022/04/19 12:03:56;;;;;;;12.60;8.43;;;20.80;99.90;;;;;;5083897;28;20211;-80
2022/04/19 12:06:23;;;;;;;10.40;8.00;;;20.80;99.90;;;;;;5084424;28;20204;-79
2022/04/19 12:08:53;;;;;;;12.75;8.10;;;20.70;99.90;;;;;;5083528;28;20205;-79
2022/04/19 12:11:29;;;;;;;10.45;7.57;;;21.00;99.90;;;;;;5084605;28;20317;-80
2022/04/19 12:14:03;;;;;;;10.27;7.70;;;21.20;99.90;;;;;;5081707;28;20232;-79
2022/04/19 12:16:31;;;;;;;11.25;7.07;;;21.00;99.90;;;;;;5084301;28;20228;-80
2022/04/19 12:19:00;;;;;;;9.23;6.95;;;20.90;99.90;;;;;;5082872;28;20314;-79
2022/04/19 12:21:38;;;;;;;9.45;7.00;;;21.10;99.90;;;;;;5084051;28;20207;-80
2022/04/19 12:24:20;;;;;;;9.73;7.00;;;21.00;99.90;;;;;;5083364;28;20257;-81
2022/04/19 12:26:51;;;;;;;11.60;6.43;;;20.80;99.90;;;;;;5083454;28;20212;-80
2022/04/19 12:29:18;;;;;;;9.88;6.32;;;20.50;99.90;;;;;;5084251;28;20754;-79
2022/04/19 12:31:47;;;;;;;8.52;5.88;;;20.30;99.90;;;;;;5082641;28;20197;-78
2022/04/19 12:34:18;;;;;;;8.48;6.68;;;20.30;99.90;;;;;;5083531;28;20231;-79
2022/04/19 13:05:19;;;;;;;10.95;8.07;;;20.20;99.90;;;;;;5081444;27;20223;-81
2022/04/19 13:13:17;;;;;;;12.93;8.18;;;20.10;99.90;;;;;;5069505;28;20572;-79
2022/04/19 13:15:43;;;;;;;11.60;7.38;;;20.10;99.90;;;;;;5078807;28;20224;-79
2022/04/19 13:18:10;;;;;;;10.43;7.45;;;20.20;99.90;;;;;;5089372;28;20202;-79
2022/04/19 13:20:38;;;;;;;11.95;8.57;;;20.20;99.90;;;;;;5090051;28;20201;-80
2022/04/19 13:23:06;;;;;;;12.00;7.82;;;20.30;99.90;;;;;;5088623;28;20231;-81
2022/04/19 13:25:35;;;;;;;9.23;6.97;;;20.40;99.90;;;;;;5089470;28;20212;-79
2022/04/19 13:28:01;;;;;;;10.55;7.03;;;20.20;99.90;;;;;;5088781;28;20200;-80
2022/04/19 13:30:29;;;;;;;6.70;5.43;;;20.50;99.90;;;;;;5089611;28;20220;-79
2022/04/19 13:32:56;;;;;;;8.57;6.75;;;20.50;99.90;;;;;;5089570;28;20216;-80
2022/04/19 13:35:23;;;;;;;8.90;5.80;;;20.30;99.90;;;;;;5089594;28;20220;-79
2022/04/19 13:40:35;;;;;;;8.65;6.15;;;20.20;99.90;;;;;;5089682;28;20905;-78
2022/04/19 13:43:02;;;;;;;9.10;5.82;;;20.30;99.90;;;;;;5088000;28;20279;-79
2022/04/19 13:45:31;;;;;;;12.40;8.68;;;20.30;99.90;;;;;;5085209;28;20197;-78
2022/04/19 13:47:58;;;;;;;12.05;8.25;;;20.50;99.90;;;;;;5088975;28;20197;-81
2022/04/19 13:50:25;;;;;;;12.23;8.70;;;20.60;99.90;;;;;;5089601;28;20231;-78
2022/04/19 13:52:53;;;;;;;12.93;8.77;;;20.60;99.90;;;;;;5084847;28;20299;-77
2022/04/19 13:55:21;;;;;;;13.25;9.60;;;20.60;99.90;;;;;;5081437;28;20339;-78
2022/04/19 13:57:49;;;;;;;13.45;9.10;;;20.50;99.90;;;;;;5082902;28;20807;-79
2022/04/19 14:00:16;;;;;;;12.38;8.57;;;20.40;99.90;;;;;;5086989;28;20296;-79
2022/04/19 14:02:44;;;;;;;12.88;7.78;;;20.50;99.90;;;;;;5087955;28;20224;-80
2022/04/19 14:05:11;;;;;;;11.80;7.80;;;20.60;99.90;;;;;;5086469;28;20231;-78
2022/04/19 14:07:40;;;;;;;13.40;7.95;;;20.30;99.90;;;;;;5088897;28;20223;-78